Time;durP1;ratioP1;P1;durP2;ratioP2;P2;SDS_P1;SDS_P2;PMS_P1;PMS_P2;Temp;Humidity;BMP_temperature;BMP_pressure;BME280_temperature;BME280_humidity;BME280_pressure;Samples;Min_cycle;Max_cycle;Signal;HPM_P1;HPM_P2
2023/04/21 00:00:16;;;;;;;15.13;13.57;;;10.80;79.20;;;;;;928527;151;27384;-73
2023/04/21 00:02:45;;;;;;;16.10;14.47;;;10.80;79.40;;;;;;928495;152;27381;-73
2023/04/21 00:05:11;;;;;;;17.50;13.83;;;10.80;79.60;;;;;;930174;154;27439;-73
2023/04/21 00:07:37;;;;;;;16.03;13.77;;;10.80;79.60;;;;;;927578;151;27337;-73
2023/04/21 00:10:06;;;;;;;15.57;14.07;;;10.80;79.80;;;;;;925658;153;27353;-74
2023/04/21 00:12:32;;;;;;;15.23;13.73;;;10.80;79.80;;;;;;927556;152;27489;-74
2023/04/21 00:14:59;;;;;;;13.80;12.40;;;10.90;80.00;;;;;;926643;154;27311;-74
2023/04/21 00:17:25;;;;;;;16.67;14.53;;;10.90;80.00;;;;;;945438;149;27303;-74
2023/04/21 00:19:52;;;;;;;16.03;14.43;;;10.80;80.00;;;;;;941275;149;27390;-74
2023/04/21 00:22:20;;;;;;;14.93;13.43;;;10.90;80.20;;;;;;937963;152;27300;-74
2023/04/21 00:24:45;;;;;;;15.27;13.87;;;10.90;80.30;;;;;;930613;153;27467;-74
2023/04/21 00:27:12;;;;;;;13.93;12.53;;;10.90;80.30;;;;;;930026;151;27336;-74
2023/04/21 00:29:39;;;;;;;13.67;12.47;;;10.90;79.50;;;;;;929697;151;27302;-74
2023/04/21 00:32:07;;;;;;;14.00;12.70;;;10.90;80.30;;;;;;929471;153;27375;-74
2023/04/21 00:34:31;;;;;;;14.27;12.90;;;10.90;80.20;;;;;;929705;151;27384;-74
2023/04/21 00:36:58;;;;;;;14.47;13.17;;;10.90;80.00;;;;;;929375;151;27336;-74
2023/04/21 00:39:25;;;;;;;13.50;12.30;;;10.90;80.10;;;;;;929568;151;27322;-74
2023/04/21 00:41:51;;;;;;;14.70;13.20;;;10.90;80.30;;;;;;929141;153;27808;-74
2023/04/21 00:44:18;;;;;;;14.43;13.03;;;10.90;80.30;;;;;;928322;153;27469;-74
2023/04/21 00:46:44;;;;;;;15.00;13.60;;;10.90;80.40;;;;;;928961;152;27369;-74
2023/04/21 00:49:12;;;;;;;14.87;13.50;;;10.90;80.30;;;;;;928812;152;27798;-74
2023/04/21 00:51:38;;;;;;;15.53;14.13;;;10.80;80.30;;;;;;929471;152;27685;-74
2023/04/21 00:54:04;;;;;;;15.17;13.67;;;10.80;80.50;;;;;;929877;151;27330;-74
2023/04/21 00:56:31;;;;;;;15.83;14.33;;;10.70;80.30;;;;;;929533;151;27353;-74
2023/04/21 00:58:57;;;;;;;15.33;13.73;;;10.70;80.40;;;;;;928330;152;27349;-74
2023/04/21 01:01:24;;;;;;;15.13;13.80;;;10.70;80.70;;;;;;934573;149;27375;-74
2023/04/21 01:03:51;;;;;;;17.07;15.37;;;10.60;80.70;;;;;;945808;149;27508;-74
2023/04/21 01:06:17;;;;;;;15.23;13.73;;;10.50;80.70;;;;;;944348;149;27314;-74
2023/04/21 01:08:44;;;;;;;16.20;14.63;;;10.50;80.90;;;;;;943807;149;27485;-74
2023/04/21 01:11:11;;;;;;;16.43;14.77;;;10.40;81.00;;;;;;943497;149;27397;-74
2023/04/21 01:13:37;;;;;;;15.90;14.57;;;10.30;81.00;;;;;;944790;149;27335;-74
2023/04/21 01:16:04;;;;;;;15.57;14.13;;;10.30;81.40;;;;;;945227;149;27447;-74
2023/04/21 01:18:30;;;;;;;16.27;14.60;;;10.20;81.40;;;;;;944513;149;27449;-74
2023/04/21 01:20:57;;;;;;;17.47;15.63;;;10.10;81.30;;;;;;943913;149;27469;-74
2023/04/21 01:23:23;;;;;;;16.40;14.73;;;10.10;82.00;;;;;;943852;149;27352;-74
2023/04/21 01:25:50;;;;;;;16.97;14.63;;;10.00;82.30;;;;;;944476;149;27478;-74
2023/04/21 01:28:22;;;;;;;15.07;13.47;;;9.90;82.50;;;;;;944844;149;27458;-74
2023/04/21 01:30:49;;;;;;;16.30;14.70;;;9.90;82.80;;;;;;944253;149;27369;-74
2023/04/21 01:33:16;;;;;;;16.07;14.50;;;9.80;83.10;;;;;;944843;149;27391;-74
2023/04/21 01:35:42;;;;;;;17.43;15.80;;;9.70;83.40;;;;;;957875;147;27269;-74
2023/04/21 01:38:09;;;;;;;16.13;14.53;;;9.70;83.70;;;;;;957325;147;27331;-74
2023/04/21 01:40:35;;;;;;;16.77;15.07;;;9.70;83.90;;;;;;948686;148;27435;-74
2023/04/21 01:43:02;;;;;;;18.10;16.30;;;9.60;84.30;;;;;;949274;148;27444;-74
2023/04/21 01:45:29;;;;;;;17.87;16.13;;;9.60;84.60;;;;;;941129;149;27364;-74
2023/04/21 01:47:55;;;;;;;17.13;15.53;;;9.60;84.90;;;;;;951137;147;27290;-74
2023/04/21 01:50:22;;;;;;;16.50;14.90;;;9.50;85.10;;;;;;928612;150;27432;-74
2023/04/21 01:52:48;;;;;;;17.20;15.50;;;9.50;85.30;;;;;;927642;150;27482;-74
2023/04/21 01:55:15;;;;;;;17.33;15.53;;;9.40;85.40;;;;;;941593;149;27821;-74
2023/04/21 01:57:42;;;;;;;17.07;15.37;;;9.40;85.40;;;;;;943516;148;27331;-75
2023/04/21 02:00:08;;;;;;;15.80;14.27;;;9.30;85.50;;;;;;945041;148;27358;-74
2023/04/21 02:02:35;;;;;;;17.17;15.47;;;9.30;85.90;;;;;;918044;152;27416;-74
2023/04/21 02:05:01;;;;;;;16.77;15.20;;;9.30;86.30;;;;;;927120;153;27366;-74
2023/04/21 02:07:28;;;;;;;17.17;15.43;;;9.30;86.30;;;;;;927192;153;27294;-74
2023/04/21 02:09:55;;;;;;;17.47;15.87;;;9.20;86.50;;;;;;927402;153;27418;-75
2023/04/21 02:12:21;;;;;;;17.33;15.30;;;9.20;86.90;;;;;;926851;153;27368;-75
2023/04/21 02:14:48;;;;;;;17.23;15.63;;;9.20;87.10;;;;;;937270;152;27357;-75
2023/04/21 02:17:15;;;;;;;17.20;15.50;;;9.20;87.50;;;;;;937188;149;27430;-76
2023/04/21 02:19:41;;;;;;;16.13;14.47;;;9.20;87.80;;;;;;911541;155;27313;-75
2023/04/21 02:22:09;;;;;;;15.87;14.33;;;9.10;88.00;;;;;;927737;152;27321;-75
2023/04/21 02:24:34;;;;;;;16.20;14.60;;;9.10;88.20;;;;;;942014;149;27336;-75
2023/04/21 02:27:01;;;;;;;15.27;13.77;;;9.00;89.00;;;;;;939764;152;27357;-74
2023/04/21 02:29:27;;;;;;;17.27;15.63;;;9.00;88.50;;;;;;934096;152;27342;-75
2023/04/21 02:31:54;;;;;;;15.83;14.30;;;9.00;88.80;;;;;;947310;150;27432;-75
2023/04/21 02:34:21;;;;;;;15.87;14.37;;;8.90;89.00;;;;;;944999;150;27404;-73
2023/04/21 02:36:47;;;;;;;15.93;14.30;;;8.90;89.20;;;;;;925763;153;27357;-74
2023/04/21 02:39:14;;;;;;;20.33;13.47;;;8.90;89.40;;;;;;925978;153;27459;-74
2023/04/21 02:41:40;;;;;;;15.03;13.17;;;8.80;89.50;;;;;;926610;153;27433;-74
2023/04/21 02:44:07;;;;;;;15.67;12.97;;;8.80;89.60;;;;;;925948;153;27321;-74
2023/04/21 02:46:33;;;;;;;15.10;13.50;;;8.80;89.70;;;;;;926202;153;28652;-75
2023/04/21 02:49:00;;;;;;;14.40;13.00;;;8.70;89.70;;;;;;935624;152;27352;-74
2023/04/21 02:51:27;;;;;;;14.03;12.70;;;8.70;89.90;;;;;;930847;153;27374;-74
2023/04/21 02:53:53;;;;;;;15.27;13.67;;;8.60;90.00;;;;;;930871;150;27436;-74
2023/04/21 02:56:20;;;;;;;15.77;14.17;;;8.60;90.20;;;;;;923239;152;27380;-74
2023/04/21 02:58:46;;;;;;;15.27;13.80;;;8.60;90.40;;;;;;937355;152;27294;-74
2023/04/21 03:01:13;;;;;;;15.17;13.67;;;8.50;90.60;;;;;;919008;153;27372;-74
2023/04/21 03:03:40;;;;;;;16.00;14.43;;;8.50;90.80;;;;;;916979;150;27729;-74
2023/04/21 03:06:06;;;;;;;15.93;14.40;;;8.50;91.10;;;;;;928784;149;27310;-74
2023/04/21 03:08:33;;;;;;;15.60;14.00;;;8.60;91.40;;;;;;930073;149;27511;-74
2023/04/21 03:10:59;;;;;;;15.73;13.97;;;8.60;91.60;;;;;;937454;148;27322;-74
2023/04/21 03:13:26;;;;;;;15.63;13.97;;;8.60;91.80;;;;;;942375;147;27359;-74
2023/04/21 03:15:52;;;;;;;13.47;12.27;;;8.60;92.00;;;;;;931723;149;27952;-74
2023/04/21 03:18:19;;;;;;;13.33;11.90;;;8.60;92.00;;;;;;933828;149;27826;-74
2023/04/21 03:20:46;;;;;;;25.30;13.37;;;8.70;92.10;;;;;;931917;149;27402;-74
2023/04/21 03:23:12;;;;;;;46.03;13.80;;;8.70;92.10;;;;;;932159;149;27856;-74
2023/04/21 03:25:39;;;;;;;26.93;12.17;;;8.70;92.20;;;;;;932267;149;27433;-74
2023/04/21 03:28:05;;;;;;;34.80;14.23;;;8.70;92.30;;;;;;932599;149;27360;-74
2023/04/21 03:30:32;;;;;;;14.90;11.80;;;8.70;92.30;;;;;;931634;149;27362;-74
2023/04/21 03:32:59;;;;;;;24.87;12.43;;;8.80;92.40;;;;;;932508;149;27314;-74
2023/04/21 03:35:25;;;;;;;42.87;14.80;;;8.80;92.50;;;;;;934061;149;27376;-74
2023/04/21 03:37:52;;;;;;;66.20;16.03;;;8.80;92.70;;;;;;919032;150;27668;-74
2023/04/21 03:40:18;;;;;;;60.40;16.03;;;8.80;92.80;;;;;;929379;149;27428;-74
2023/04/21 03:42:45;;;;;;;63.27;15.73;;;8.80;92.80;;;;;;936813;148;27333;-74
2023/04/21 03:45:11;;;;;;;43.90;14.80;;;8.80;93.00;;;;;;936949;148;27384;-74
2023/04/21 03:47:38;;;;;;;55.43;15.37;;;8.80;93.10;;;;;;940961;147;27330;-74
2023/04/21 03:50:05;;;;;;;30.93;12.80;;;8.90;93.20;;;;;;941380;147;27333;-74
2023/04/21 03:52:31;;;;;;;46.50;13.90;;;8.90;93.40;;;;;;928545;149;27390;-74
2023/04/21 03:54:58;;;;;;;34.53;13.30;;;8.90;93.40;;;;;;937160;148;27366;-74
2023/04/21 03:57:24;;;;;;;28.13;13.50;;;8.90;93.50;;;;;;937072;148;27434;-74
2023/04/21 03:59:51;;;;;;;33.20;13.63;;;8.90;93.60;;;;;;921357;150;27351;-74
2023/04/21 04:02:18;;;;;;;35.37;13.37;;;9.00;93.70;;;;;;929961;149;27301;-74
2023/04/21 04:04:44;;;;;;;37.80;14.70;;;9.00;93.80;;;;;;947799;147;27386;-75
2023/04/21 04:07:11;;;;;;;55.13;13.97;;;9.00;93.90;;;;;;952265;146;27353;-73
2023/04/21 04:09:37;;;;;;;41.33;14.40;;;9.00;94.00;;;;;;952330;148;27384;-74
2023/04/21 04:12:04;;;;;;;38.90;13.03;;;9.00;94.10;;;;;;932512;150;27441;-74
2023/04/21 04:14:31;;;;;;;30.33;13.47;;;9.00;94.20;;;;;;956693;146;27327;-74
2023/04/21 04:16:57;;;;;;;40.23;14.60;;;9.00;94.20;;;;;;947213;146;27956;-74
2023/04/21 04:19:24;;;;;;;30.20;13.60;;;9.10;94.40;;;;;;943703;148;27345;-74
2023/04/21 04:21:50;;;;;;;26.17;12.90;;;9.10;94.30;;;;;;927564;150;27398;-74
2023/04/21 04:24:18;;;;;;;18.37;11.90;;;9.10;94.40;;;;;;926985;150;27328;-74
2023/04/21 04:26:44;;;;;;;26.60;13.57;;;9.10;94.50;;;;;;941361;149;27302;-74
2023/04/21 04:29:10;;;;;;;14.87;13.13;;;9.10;94.60;;;;;;941324;149;27345;-74
2023/04/21 04:31:37;;;;;;;19.43;13.00;;;9.10;94.70;;;;;;941011;149;27459;-74
2023/04/21 04:34:03;;;;;;;45.33;15.07;;;9.10;94.90;;;;;;942569;149;27344;-74
2023/04/21 04:36:30;;;;;;;63.13;15.90;;;9.10;94.90;;;;;;941094;149;27393;-74
2023/04/21 04:38:57;;;;;;;43.17;14.43;;;9.20;95.20;;;;;;942281;149;27456;-74
2023/04/21 04:41:23;;;;;;;40.47;15.00;;;9.20;95.30;;;;;;944371;148;27353;-74
2023/04/21 04:43:50;;;;;;;17.97;13.27;;;9.20;95.40;;;;;;940786;149;27369;-74
2023/04/21 04:46:19;;;;;;;21.73;13.27;;;9.30;95.50;;;;;;940788;149;27338;-74
2023/04/21 04:48:43;;;;;;;18.37;12.37;;;9.30;95.50;;;;;;944403;148;27266;-74
2023/04/21 04:51:09;;;;;;;16.57;12.23;;;9.30;95.70;;;;;;948820;147;27343;-74
2023/04/21 04:53:36;;;;;;;13.87;12.30;;;9.30;95.80;;;;;;944263;149;27357;-74
2023/04/21 04:56:03;;;;;;;16.80;13.63;;;9.40;95.90;;;;;;943108;148;27320;-74
2023/04/21 04:58:29;;;;;;;16.83;13.20;;;9.40;96.00;;;;;;943939;148;27395;-74
2023/04/21 05:00:56;;;;;;;17.67;14.27;;;9.40;96.00;;;;;;948185;147;27302;-74
2023/04/21 05:03:22;;;;;;;14.73;13.40;;;9.50;96.10;;;;;;948663;147;27323;-74
2023/04/21 05:05:49;;;;;;;14.53;13.20;;;9.50;96.00;;;;;;942668;151;27336;-74
2023/04/21 05:08:15;;;;;;;14.60;13.23;;;9.50;96.10;;;;;;932923;150;27315;-74
2023/04/21 05:10:42;;;;;;;15.03;13.60;;;9.60;96.20;;;;;;931908;153;28002;-74
2023/04/21 05:13:09;;;;;;;17.13;15.53;;;9.60;96.30;;;;;;932562;150;27329;-74
2023/04/21 05:15:35;;;;;;;20.87;15.80;;;9.60;96.40;;;;;;937416;153;27364;-74
2023/04/21 05:18:02;;;;;;;15.83;14.13;;;9.70;96.50;;;;;;924552;155;27823;-74
2023/04/21 05:20:28;;;;;;;16.53;14.50;;;9.70;96.60;;;;;;919753;156;27363;-74
2023/04/21 05:22:55;;;;;;;17.53;15.17;;;9.70;96.70;;;;;;937165;151;27396;-75
2023/04/21 05:25:22;;;;;;;18.00;15.33;;;9.80;96.70;;;;;;938042;149;27370;-75
2023/04/21 05:27:48;;;;;;;26.10;16.90;;;9.90;96.80;;;;;;937346;149;27352;-74
2023/04/21 05:30:15;;;;;;;37.37;15.20;;;9.90;96.90;;;;;;928641;151;27490;-74
2023/04/21 05:32:41;;;;;;;22.50;15.80;;;9.90;96.90;;;;;;929359;151;27354;-74
2023/04/21 05:35:08;;;;;;;35.90;16.93;;;10.00;97.00;;;;;;937189;151;27290;-75
2023/04/21 05:37:35;;;;;;;29.40;16.70;;;10.10;97.10;;;;;;941508;151;27336;-75
2023/04/21 05:40:01;;;;;;;20.33;16.27;;;10.10;97.10;;;;;;921204;155;27473;-74
2023/04/21 05:42:28;;;;;;;21.73;16.50;;;10.20;97.20;;;;;;921516;154;27404;-74
2023/04/21 05:44:54;;;;;;;32.20;16.07;;;10.20;97.30;;;;;;923246;154;27275;-74
2023/04/21 05:47:21;;;;;;;31.73;17.60;;;10.30;97.30;;;;;;923271;154;28013;-74
2023/04/21 05:49:49;;;;;;;19.53;15.83;;;10.30;97.10;;;;;;923124;154;27357;-74
2023/04/21 05:52:14;;;;;;;19.67;15.53;;;10.30;97.00;;;;;;922496;154;27370;-74
2023/04/21 05:54:41;;;;;;;20.57;15.60;;;10.30;97.00;;;;;;922108;152;27311;-74
2023/04/21 05:57:07;;;;;;;29.20;16.43;;;10.40;97.00;;;;;;919362;152;27508;-75
2023/04/21 05:59:34;;;;;;;22.77;15.70;;;10.40;97.10;;;;;;921648;152;27464;-74
2023/04/21 06:02:02;;;;;;;25.47;14.83;;;10.40;97.00;;;;;;929500;151;27278;-74
2023/04/21 06:04:27;;;;;;;23.17;16.43;;;10.50;97.20;;;;;;928945;153;27815;-74
2023/04/21 06:06:54;;;;;;;18.07;14.37;;;10.50;97.10;;;;;;929781;153;27402;-74
2023/04/21 06:09:20;;;;;;;30.53;16.13;;;10.60;97.10;;;;;;929387;153;27412;-74
2023/04/21 06:11:47;;;;;;;21.37;14.73;;;10.60;97.20;;;;;;932068;151;27354;-74
2023/04/21 06:14:13;;;;;;;23.13;14.93;;;10.60;97.20;;;;;;948127;148;27322;-74
2023/04/21 06:16:40;;;;;;;16.53;13.27;;;10.60;97.20;;;;;;942601;149;27341;-74
2023/04/21 06:19:07;;;;;;;16.77;13.77;;;10.70;97.10;;;;;;949911;148;27303;-74
2023/04/21 06:21:33;;;;;;;19.17;12.47;;;10.70;97.20;;;;;;939467;150;27365;-74
2023/04/21 06:24:00;;;;;;;24.43;13.17;;;10.80;97.30;;;;;;938098;150;27549;-74
2023/04/21 06:26:26;;;;;;;29.60;14.07;;;10.80;97.30;;;;;;938226;150;27453;-74
2023/04/21 06:28:53;;;;;;;19.00;14.50;;;10.90;97.50;;;;;;938150;150;27307;-74
2023/04/21 06:31:20;;;;;;;28.47;14.83;;;10.90;97.60;;;;;;938154;150;27369;-74
2023/04/21 06:33:46;;;;;;;42.27;15.90;;;11.00;97.90;;;;;;937179;150;27377;-74
2023/04/21 06:36:13;;;;;;;38.37;16.17;;;11.10;98.00;;;;;;937555;150;27427;-73
2023/04/21 06:38:41;;;;;;;32.03;15.83;;;11.20;97.90;;;;;;938076;150;27275;-78
2023/04/21 06:41:06;;;;;;;18.87;14.83;;;11.20;97.80;;;;;;938293;150;27426;-78
2023/04/21 06:43:33;;;;;;;17.10;14.33;;;11.30;97.90;;;;;;938296;150;27389;-78
2023/04/21 06:45:59;;;;;;;17.13;13.93;;;11.40;98.10;;;;;;938389;150;27330;-78
2023/04/21 06:48:26;;;;;;;15.03;13.40;;;11.50;98.10;;;;;;938409;150;27291;-78
2023/04/21 06:50:52;;;;;;;16.73;13.73;;;11.60;98.20;;;;;;938450;150;27456;-78
2023/04/21 06:53:20;;;;;;;15.67;14.07;;;11.70;98.30;;;;;;938641;150;27366;-78
2023/04/21 06:55:45;;;;;;;15.67;13.73;;;11.80;98.30;;;;;;939276;150;27411;-78
2023/04/21 06:58:12;;;;;;;14.93;12.73;;;11.90;98.50;;;;;;936763;150;27454;-78
2023/04/21 07:00:39;;;;;;;13.27;11.87;;;12.10;98.80;;;;;;937788;150;27338;-78
2023/04/21 07:03:05;;;;;;;15.03;13.43;;;12.20;99.10;;;;;;938634;150;27426;-78
2023/04/21 07:05:32;;;;;;;15.67;14.07;;;12.40;99.10;;;;;;940990;149;27482;-78
2023/04/21 07:07:58;;;;;;;15.43;13.20;;;12.60;98.50;;;;;;945099;149;27290;-78
2023/04/21 07:10:25;;;;;;;14.73;13.13;;;12.70;98.10;;;;;;944915;149;27783;-78
2023/04/21 07:12:52;;;;;;;14.37;12.87;;;12.90;98.10;;;;;;944547;149;27321;-78
2023/04/21 07:15:18;;;;;;;16.63;12.87;;;13.00;98.10;;;;;;944330;149;27477;-78
2023/04/21 07:17:45;;;;;;;14.05;12.65;;;13.20;97.90;;;;;;944622;149;27886;-78
2023/04/21 07:20:11;;;;;;;15.08;13.53;;;13.30;97.90;;;;;;944449;149;27782;-78
2023/04/21 07:22:38;;;;;;;13.53;11.43;;;13.50;97.60;;;;;;944535;149;27491;-80
2023/04/21 07:25:07;;;;;;;12.65;11.35;;;13.60;97.50;;;;;;945074;149;27313;-78
2023/04/21 07:27:35;;;;;;;13.62;12.20;;;13.80;97.80;;;;;;943252;149;27473;-78
2023/04/21 07:30:00;;;;;;;14.35;12.95;;;14.00;97.90;;;;;;943328;149;27633;-78
2023/04/21 07:32:27;;;;;;;13.93;12.35;;;14.20;97.60;;;;;;943826;149;27353;-78
2023/04/21 07:34:53;;;;;;;13.08;11.78;;;14.50;97.80;;;;;;944405;149;27278;-77
2023/04/21 07:37:20;;;;;;;13.20;11.90;;;14.70;97.40;;;;;;943630;149;27466;-78
2023/04/21 07:39:47;;;;;;;13.35;12.05;;;14.90;96.80;;;;;;945206;149;27321;-78
2023/04/21 07:42:13;;;;;;;13.05;11.75;;;15.10;96.10;;;;;;944960;149;27302;-78
2023/04/21 07:44:40;;;;;;;13.18;11.85;;;15.20;95.40;;;;;;944587;149;27757;-78
2023/04/21 07:47:06;;;;;;;12.80;11.48;;;15.40;94.50;;;;;;943839;149;27458;-77
2023/04/21 07:49:33;;;;;;;12.28;11.15;;;15.50;93.90;;;;;;944107;149;27367;-78
2023/04/21 07:52:00;;;;;;;13.88;11.90;;;15.60;93.50;;;;;;944263;149;27472;-80
2023/04/21 07:54:26;;;;;;;11.30;10.10;;;15.80;93.60;;;;;;943123;149;27450;-78
2023/04/21 07:56:53;;;;;;;12.23;11.12;;;16.00;93.40;;;;;;944691;149;27455;-78
2023/04/21 07:59:19;;;;;;;12.80;11.60;;;16.20;93.90;;;;;;944489;149;27447;-78
2023/04/21 08:01:46;;;;;;;11.43;10.32;;;16.50;93.90;;;;;;944883;149;27438;-78
2023/04/21 08:04:13;;;;;;;11.78;10.65;;;16.80;93.30;;;;;;943984;149;27329;-78
2023/04/21 08:06:39;;;;;;;11.28;10.25;;;17.10;92.90;;;;;;934511;149;27489;-78
2023/04/21 08:09:06;;;;;;;12.53;11.22;;;17.40;92.20;;;;;;927319;150;27414;-78
2023/04/21 08:11:32;;;;;;;12.93;11.53;;;17.70;91.30;;;;;;926972;150;27446;-78
2023/04/21 08:13:59;;;;;;;11.03;10.03;;;17.90;90.50;;;;;;931603;149;27317;-78
2023/04/21 08:16:25;;;;;;;11.43;10.32;;;18.10;89.60;;;;;;939359;150;27382;-78
2023/04/21 08:18:52;;;;;;;12.20;10.60;;;18.40;88.30;;;;;;940212;150;27294;-78
2023/04/21 08:21:19;;;;;;;10.82;9.83;;;18.60;87.50;;;;;;936373;149;27369;-78
2023/04/21 08:23:45;;;;;;;11.50;10.40;;;18.80;86.40;;;;;;936864;149;27318;-78
2023/04/21 08:26:12;;;;;;;11.28;10.28;;;18.90;84.30;;;;;;938830;150;27371;-78
2023/04/21 08:28:38;;;;;;;11.22;10.13;;;19.10;82.60;;;;;;927138;150;27402;-78
2023/04/21 08:31:05;;;;;;;10.98;9.98;;;19.10;80.90;;;;;;940885;148;27374;-78
2023/04/21 08:33:32;;;;;;;10.72;9.78;;;19.20;79.50;;;;;;937046;148;27429;-79
2023/04/21 08:35:58;;;;;;;11.20;10.25;;;19.20;79.00;;;;;;937133;148;27796;-78
2023/04/21 08:38:25;;;;;;;11.70;10.60;;;19.20;78.90;;;;;;935308;149;27361;-79
2023/04/21 08:40:51;;;;;;;10.80;9.75;;;19.30;78.90;;;;;;936350;149;27337;-78
2023/04/21 08:43:18;;;;;;;11.50;10.50;;;19.40;78.50;;;;;;936989;148;27427;-78
2023/04/21 08:45:45;;;;;;;11.73;10.63;;;19.40;77.20;;;;;;937237;148;27326;-78
2023/04/21 08:48:11;;;;;;;11.50;10.40;;;19.30;76.30;;;;;;937918;149;27325;-79
2023/04/21 08:50:38;;;;;;;10.85;9.88;;;19.40;76.20;;;;;;936067;149;27353;-78
2023/04/21 08:53:04;;;;;;;11.53;10.43;;;19.30;76.30;;;;;;939442;150;27365;-78
2023/04/21 08:55:31;;;;;;;12.65;11.35;;;19.30;76.20;;;;;;929557;150;27515;-78
2023/04/21 08:57:58;;;;;;;12.80;11.55;;;19.20;75.70;;;;;;928906;150;27309;-79
2023/04/21 09:00:24;;;;;;;12.30;11.00;;;19.20;75.40;;;;;;929415;150;27985;-78
2023/04/21 09:02:54;;;;;;;11.45;10.43;;;19.10;75.20;;;;;;929406;150;27415;-79
2023/04/21 09:05:23;;;;;;;11.85;10.80;;;19.10;75.20;;;;;;929336;150;27350;-78
2023/04/21 09:07:50;;;;;;;11.70;10.53;;;19.10;75.20;;;;;;945257;148;27558;-78
2023/04/21 09:10:16;;;;;;;11.60;10.60;;;19.10;75.50;;;;;;948156;148;27446;-79
2023/04/21 09:12:43;;;;;;;11.35;10.38;;;19.00;75.30;;;;;;946802;148;27880;-78
2023/04/21 09:15:11;;;;;;;11.55;10.48;;;19.00;75.00;;;;;;946622;148;27343;-78
2023/04/21 09:17:37;;;;;;;10.93;9.90;;;19.10;75.00;;;;;;947494;148;27387;-78
2023/04/21 09:20:15;;;;;;;11.20;10.08;;;19.00;75.10;;;;;;937374;149;27418;-79
2023/04/21 09:22:41;;;;;;;11.53;10.43;;;19.10;75.00;;;;;;953150;146;27316;-79
2023/04/21 09:25:08;;;;;;;11.43;10.32;;;19.10;75.30;;;;;;953201;146;27308;-78
2023/04/21 09:27:37;;;;;;;11.33;10.25;;;19.20;75.50;;;;;;953734;146;27343;-78
2023/04/21 09:30:05;;;;;;;11.10;10.13;;;19.20;75.60;;;;;;953506;146;27340;-78
2023/04/21 09:32:31;;;;;;;10.93;9.93;;;19.30;75.60;;;;;;956046;146;27674;-78
2023/04/21 09:35:00;;;;;;;11.25;10.15;;;19.40;75.50;;;;;;949828;148;27319;-78
2023/04/21 09:37:27;;;;;;;12.25;11.03;;;19.50;75.50;;;;;;936277;149;27495;-78
2023/04/21 09:39:53;;;;;;;11.73;10.43;;;19.70;75.10;;;;;;953963;146;27344;-78
2023/04/21 09:42:20;;;;;;;10.88;9.80;;;19.80;75.00;;;;;;937535;148;27298;-78
2023/04/21 09:44:47;;;;;;;11.78;10.68;;;19.90;74.60;;;;;;948934;148;27301;-78
2023/04/21 09:47:13;;;;;;;11.38;10.35;;;20.00;74.00;;;;;;956415;146;27314;-79
2023/04/21 09:49:43;;;;;;;11.65;10.55;;;20.00;73.30;;;;;;951773;148;27457;-78
2023/04/21 09:52:10;;;;;;;11.45;10.28;;;20.10;72.40;;;;;;948965;148;27352;-78
2023/04/21 09:54:33;;;;;;;11.20;10.10;;;20.10;71.50;;;;;;949340;148;27708;-78
2023/04/21 09:57:00;;;;;;;11.88;10.78;;;20.10;71.20;;;;;;949496;148;27883;-80
2023/04/21 09:59:27;;;;;;;12.20;10.60;;;20.00;71.20;;;;;;949560;148;27450;-79
2023/04/21 10:01:53;;;;;;;12.60;11.30;;;19.90;70.90;;;;;;947241;148;27348;-78
2023/04/21 10:04:21;;;;;;;11.65;10.53;;;19.90;70.70;;;;;;958762;147;27405;-78
2023/04/21 10:06:46;;;;;;;12.58;10.82;;;19.70;70.70;;;;;;941230;149;27373;-77
2023/04/21 10:09:12;;;;;;;11.22;10.15;;;19.70;70.80;;;;;;937883;148;27290;-78
2023/04/21 10:11:39;;;;;;;11.65;10.65;;;19.60;71.30;;;;;;914643;151;27364;-78
2023/04/21 10:14:06;;;;;;;12.98;11.70;;;19.60;71.80;;;;;;916126;151;27354;-77
2023/04/21 10:16:32;;;;;;;12.03;10.88;;;19.50;72.00;;;;;;929387;149;27342;-78
2023/04/21 10:18:59;;;;;;;11.75;10.55;;;19.50;72.10;;;;;;943649;147;27265;-77
2023/04/21 10:21:25;;;;;;;11.90;10.80;;;19.50;72.10;;;;;;936463;148;27441;-77
2023/04/21 10:23:53;;;;;;;12.37;11.12;;;19.60;72.40;;;;;;936425;148;27446;-78
2023/04/21 10:26:24;;;;;;;12.78;11.48;;;19.70;72.50;;;;;;921484;150;27341;-78
2023/04/21 10:28:58;;;;;;;11.05;9.95;;;19.80;72.50;;;;;;934342;150;27343;-78
2023/04/21 10:31:32;;;;;;;10.95;9.93;;;19.90;72.70;;;;;;930715;150;27388;-77
2023/04/21 10:34:08;;;;;;;12.03;10.68;;;20.00;73.00;;;;;;935091;150;27350;-77
2023/04/21 10:36:47;;;;;;;11.00;10.00;;;20.20;73.00;;;;;;937989;150;27443;-77
2023/04/21 10:39:28;;;;;;;10.50;9.58;;;20.40;73.30;;;;;;929952;150;27324;-78
2023/04/21 10:41:57;;;;;;;12.05;10.55;;;20.60;73.30;;;;;;936753;148;27415;-78
2023/04/21 10:44:21;;;;;;;11.55;10.32;;;20.90;72.80;;;;;;936954;148;27363;-78
2023/04/21 10:46:48;;;;;;;11.53;10.15;;;21.20;71.90;;;;;;921830;150;27356;-78
2023/04/21 10:49:23;;;;;;;10.43;9.35;;;21.40;71.50;;;;;;920166;150;27365;-77
2023/04/21 10:52:01;;;;;;;10.00;9.00;;;21.70;71.50;;;;;;938995;150;27307;-77
2023/04/21 10:54:26;;;;;;;10.15;9.25;;;22.00;71.20;;;;;;936089;149;27380;-77
2023/04/21 10:56:52;;;;;;;12.63;9.88;;;22.20;71.00;;;;;;929126;149;27467;-77
2023/04/21 10:59:19;;;;;;;9.88;8.95;;;22.50;70.60;;;;;;933480;149;27346;-77
2023/04/21 11:01:45;;;;;;;9.23;8.28;;;22.80;69.80;;;;;;937502;150;27392;-78
2023/04/21 11:04:15;;;;;;;9.18;8.33;;;23.10;69.40;;;;;;943964;148;27248;-78
2023/04/21 11:06:42;;;;;;;9.33;8.53;;;23.30;68.30;;;;;;938324;148;27459;-78
2023/04/21 11:09:08;;;;;;;9.93;8.13;;;23.50;67.40;;;;;;936595;148;27434;-77
2023/04/21 11:11:37;;;;;;;8.95;8.15;;;23.60;66.50;;;;;;937335;148;27323;-77
2023/04/21 11:14:01;;;;;;;9.10;8.30;;;23.70;65.70;;;;;;938350;147;27318;-78
2023/04/21 11:16:28;;;;;;;8.85;8.10;;;23.80;65.20;;;;;;943865;147;27392;-78
2023/04/21 11:18:55;;;;;;;8.75;7.95;;;23.80;64.70;;;;;;932518;149;27384;-78
2023/04/21 11:21:21;;;;;;;9.05;8.25;;;23.80;64.10;;;;;;935334;149;27447;-78
2023/04/21 11:23:48;;;;;;;9.33;8.43;;;23.80;63.70;;;;;;941260;148;27319;-77
2023/04/21 11:26:14;;;;;;;8.60;7.80;;;23.80;63.00;;;;;;924160;150;27374;-77
2023/04/21 11:28:41;;;;;;;9.33;8.45;;;23.70;62.70;;;;;;936589;150;27668;-77
2023/04/21 11:31:07;;;;;;;9.08;8.18;;;23.60;62.40;;;;;;940339;150;27370;-78
2023/04/21 11:33:40;;;;;;;9.83;8.90;;;23.60;62.40;;;;;;939570;148;27319;-77
2023/04/21 11:36:06;;;;;;;9.05;8.15;;;23.50;61.60;;;;;;936236;148;27649;-78
2023/04/21 11:38:39;;;;;;;8.90;8.08;;;23.40;61.40;;;;;;941912;147;27337;-78
2023/04/21 11:41:05;;;;;;;9.23;8.05;;;23.30;61.10;;;;;;937009;148;27373;-78
2023/04/21 11:43:32;;;;;;;8.70;7.90;;;23.20;61.00;;;;;;937473;148;27345;-78
2023/04/21 11:46:25;;;;;;;8.83;8.13;;;23.10;60.80;;;;;;937181;148;27389;-78
2023/04/21 11:49:03;;;;;;;8.00;7.30;;;22.90;60.70;;;;;;939551;149;27445;-77
2023/04/21 11:51:36;;;;;;;8.45;7.70;;;22.70;60.80;;;;;;915706;152;27331;-78
2023/04/21 11:54:03;;;;;;;8.03;7.33;;;22.50;60.90;;;;;;916283;150;27366;-77
2023/04/21 11:56:29;;;;;;;9.30;8.45;;;22.40;61.00;;;;;;932458;150;27435;-77
2023/04/21 11:58:56;;;;;;;8.85;7.90;;;22.20;61.20;;;;;;940340;150;27367;-78
2023/04/21 12:01:22;;;;;;;7.95;7.22;;;22.10;61.40;;;;;;939658;150;27386;-77
2023/04/21 12:03:52;;;;;;;8.43;7.62;;;22.00;61.80;;;;;;944294;148;27321;-77
2023/04/21 12:06:21;;;;;;;8.70;7.90;;;21.90;62.00;;;;;;919166;151;27344;-77
2023/04/21 12:08:47;;;;;;;7.55;6.85;;;22.00;62.50;;;;;;922078;151;27491;-77
2023/04/21 12:11:14;;;;;;;7.60;6.83;;;22.00;62.60;;;;;;931659;151;27293;-77
2023/04/21 12:13:41;;;;;;;6.92;6.30;;;22.10;62.60;;;;;;936994;149;27344;-78
2023/04/21 12:16:07;;;;;;;7.05;6.45;;;22.10;62.10;;;;;;926696;150;27345;-78
2023/04/21 12:18:34;;;;;;;7.10;6.45;;;22.20;61.80;;;;;;944045;148;27369;-78
2023/04/21 12:21:01;;;;;;;7.20;6.50;;;22.30;61.50;;;;;;944077;148;27286;-78
2023/04/21 12:23:27;;;;;;;8.30;7.45;;;22.30;61.50;;;;;;945700;149;27323;-78
2023/04/21 12:25:54;;;;;;;9.83;6.42;;;22.30;61.70;;;;;;946770;148;27359;-78
2023/04/21 12:28:20;;;;;;;6.75;6.22;;;22.40;61.70;;;;;;929088;150;27366;-78
2023/04/21 12:30:47;;;;;;;7.00;6.40;;;22.40;61.80;;;;;;928521;150;27359;-78